createdAt,value
2022-12-23T00:01:25.468Z,0.91
2022-12-23T00:03:56.948Z,0.89
2022-12-23T00:06:24.503Z,0.87
2022-12-23T00:08:58.338Z,0.82
2022-12-23T00:11:28.977Z,0.79
2022-12-23T00:14:21.226Z,0.71
2022-12-23T00:16:50.908Z,0.73
2022-12-23T00:19:18.654Z,0.84
2022-12-23T00:21:46.169Z,1.06
2022-12-23T00:24:14.965Z,0.97
2022-12-23T00:26:42.448Z,1.05
2022-12-23T00:29:09.974Z,1.23
2022-12-23T00:31:37.439Z,1.07
2022-12-23T00:34:04.973Z,0.97
2022-12-23T00:36:32.645Z,0.95
2022-12-23T00:39:19.536Z,0.94
2022-12-23T00:42:08.371Z,0.87
2022-12-23T00:44:36.000Z,0.92
2022-12-23T00:47:03.480Z,0.83
2022-12-23T00:49:43.005Z,0.89
2022-12-23T00:52:15.771Z,0.95
2022-12-23T00:54:43.633Z,1.02
2022-12-23T00:57:11.460Z,0.97
2022-12-23T00:59:39.051Z,0.85
2022-12-23T01:02:25.118Z,0.69
2022-12-23T01:05:11.062Z,0.67
2022-12-23T01:07:38.585Z,0.73
2022-12-23T01:10:06.642Z,0.88
2022-12-23T01:12:34.151Z,0.90
2022-12-23T01:15:01.707Z,0.85
2022-12-23T01:17:29.249Z,0.90
2022-12-23T01:19:56.757Z,0.88
2022-12-23T01:22:26.919Z,0.86
2022-12-23T01:24:54.680Z,0.74
2022-12-23T01:27:22.286Z,0.71
2022-12-23T01:29:49.782Z,0.74
2022-12-23T01:32:17.383Z,0.71
2022-12-23T01:34:45.105Z,0.76
2022-12-23T01:37:12.625Z,0.81
2022-12-23T01:39:40.088Z,0.90
2022-12-23T01:42:37.256Z,0.95
2022-12-23T01:45:25.306Z,0.90
2022-12-23T01:47:55.439Z,0.95
2022-12-23T01:51:09.302Z,0.95
2022-12-23T01:53:44.818Z,0.99
2022-12-23T01:56:42.310Z,1.13
2022-12-23T01:59:34.381Z,1.12
2022-12-23T02:02:23.360Z,1.14
2022-12-23T02:04:52.003Z,1.24
2022-12-23T02:07:38.462Z,1.20
2022-12-23T02:10:08.352Z,1.31
2022-12-23T02:13:07.611Z,1.27
2022-12-23T02:16:18.838Z,1.47
2022-12-23T02:19:10.458Z,1.37
2022-12-23T02:21:37.955Z,1.34
2022-12-23T02:24:20.618Z,1.23
2022-12-23T02:27:14.184Z,1.34
2022-12-23T02:30:27.649Z,1.25
2022-12-23T02:33:03.388Z,1.25
2022-12-23T02:35:58.109Z,1.12
2022-12-23T02:38:40.112Z,1.18
2022-12-23T02:41:24.322Z,1.20
2022-12-23T02:44:00.544Z,1.37
2022-12-23T02:46:47.143Z,1.30
2022-12-23T02:49:40.412Z,1.32
2022-12-23T02:52:14.663Z,1.29
2022-12-23T02:55:06.417Z,1.23
2022-12-23T02:57:39.232Z,1.34
2022-12-23T03:00:08.890Z,1.31
2022-12-23T03:02:40.632Z,1.61
2022-12-23T03:05:39.317Z,1.31
2022-12-23T03:08:21.238Z,1.13
2022-12-23T03:11:16.368Z,1.21
2022-12-23T03:13:57.678Z,1.08
2022-12-23T03:16:29.624Z,1.09
2022-12-23T03:19:00.028Z,1.26
2022-12-23T03:22:07.387Z,1.19
2022-12-23T03:25:07.361Z,1.67
2022-12-23T03:27:41.520Z,1.16
2022-12-23T03:30:15.425Z,1.02
2022-12-23T03:33:26.549Z,1.10
2022-12-23T03:36:02.733Z,1.14
2022-12-23T03:38:34.522Z,1.10
2022-12-23T03:41:15.635Z,1.16
2022-12-23T03:43:57.055Z,1.10
2022-12-23T03:46:39.396Z,1.05
2022-12-23T03:49:14.974Z,1.03
2022-12-23T03:51:59.346Z,1.04
2022-12-23T03:54:36.484Z,1.10
2022-12-23T03:57:08.444Z,1.15
2022-12-23T03:59:41.370Z,1.14
2022-12-23T04:02:25.187Z,1.20
2022-12-23T04:05:25.819Z,1.21
2022-12-23T04:08:18.007Z,1.31
2022-12-23T04:10:46.520Z,1.22
2022-12-23T04:13:14.060Z,1.16
2022-12-23T04:15:42.666Z,1.14
2022-12-23T04:18:12.321Z,1.14
2022-12-23T04:20:39.952Z,1.01
2022-12-23T04:23:07.447Z,1.05
2022-12-23T04:25:34.937Z,1.16
2022-12-23T04:28:02.455Z,0.98
2022-12-23T04:30:34.217Z,0.99
2022-12-23T04:33:04.060Z,1.00
2022-12-23T04:35:31.831Z,0.89
2022-12-23T04:37:59.324Z,1.04
2022-12-23T04:40:28.221Z,1.06
2022-12-23T04:42:55.756Z,1.00
2022-12-23T04:45:23.474Z,0.89
2022-12-23T04:47:51.239Z,0.83
2022-12-23T04:50:18.820Z,0.86
2022-12-23T04:52:46.358Z,0.74
2022-12-23T04:55:13.880Z,0.75
2022-12-23T04:57:41.485Z,0.90
2022-12-23T05:00:10.082Z,0.88
2022-12-23T05:02:39.742Z,0.94
2022-12-23T05:05:07.743Z,0.78
2022-12-23T05:07:35.394Z,0.84
2022-12-23T05:10:03.206Z,0.91
2022-12-23T05:12:32.079Z,0.87
2022-12-23T05:14:59.545Z,0.91
2022-12-23T05:17:27.090Z,0.99
2022-12-23T05:19:54.634Z,0.93
2022-12-23T05:22:22.313Z,0.95
2022-12-23T05:24:50.392Z,0.95
2022-12-23T05:27:19.588Z,1.06
2022-12-23T05:29:47.085Z,0.95
2022-12-23T05:32:14.605Z,0.94
2022-12-23T05:34:42.229Z,1.02
2022-12-23T05:37:10.281Z,1.03
2022-12-23T05:39:37.849Z,1.19
2022-12-23T05:42:05.764Z,1.03
2022-12-23T05:44:33.441Z,1.17
2022-12-23T05:47:02.212Z,1.19
2022-12-23T05:49:30.135Z,1.12
2022-12-23T05:51:57.636Z,1.05
2022-12-23T05:54:25.426Z,1.04
2022-12-23T05:56:52.873Z,1.14
2022-12-23T05:59:21.452Z,1.25
2022-12-23T06:01:49.078Z,1.30
2022-12-23T06:04:17.991Z,1.36
2022-12-23T06:06:45.601Z,1.32
2022-12-23T06:09:13.211Z,1.31
2022-12-23T06:11:40.666Z,1.37
2022-12-23T06:14:08.480Z,1.40
2022-12-23T06:16:37.121Z,1.42
2022-12-23T06:19:05.179Z,1.40
2022-12-23T06:21:32.750Z,1.30
2022-12-23T06:24:00.385Z,1.31
2022-12-23T06:26:28.409Z,1.25
2022-12-23T06:28:55.904Z,1.26
2022-12-23T06:31:23.693Z,1.20
2022-12-23T06:33:51.169Z,1.19
2022-12-23T06:36:18.833Z,1.24
2022-12-23T06:38:46.314Z,1.37
2022-12-23T06:41:13.820Z,1.28
2022-12-23T06:43:41.256Z,1.28
2022-12-23T06:46:08.792Z,1.40
2022-12-23T06:48:36.484Z,1.42
2022-12-23T06:51:04.144Z,1.58
2022-12-23T06:53:31.642Z,1.60
2022-12-23T06:56:03.154Z,1.68
2022-12-23T06:58:30.717Z,1.72
2022-12-23T07:00:58.480Z,1.69
2022-12-23T07:03:26.329Z,1.86
2022-12-23T07:05:54.759Z,1.87
2022-12-23T07:08:22.439Z,1.91
2022-12-23T07:10:49.997Z,1.98
2022-12-23T07:13:17.461Z,2.03
2022-12-23T07:15:46.306Z,2.10
2022-12-23T07:18:13.796Z,2.30
2022-12-23T07:20:41.447Z,2.23
2022-12-23T07:23:08.905Z,2.14
2022-12-23T07:25:36.474Z,2.19
2022-12-23T07:28:04.073Z,2.14
2022-12-23T07:30:31.554Z,2.07
2022-12-23T07:32:59.200Z,2.05
2022-12-23T07:35:26.693Z,2.19
2022-12-23T07:37:56.063Z,2.36
2022-12-23T07:40:24.858Z,2.85
2022-12-23T07:42:58.695Z,3.15
2022-12-23T07:45:27.968Z,3.39
2022-12-23T07:47:57.994Z,3.53
2022-12-23T07:50:26.665Z,3.70
2022-12-23T07:52:55.924Z,3.98
2022-12-23T07:55:24.457Z,4.19
2022-12-23T07:57:53.419Z,4.33
2022-12-23T08:00:22.257Z,4.64
2022-12-23T08:02:49.947Z,4.74
2022-12-23T08:05:18.996Z,4.90
2022-12-23T08:07:46.747Z,5.27
2022-12-23T08:10:14.335Z,5.38
2022-12-23T08:12:42.635Z,5.57
2022-12-23T08:15:10.472Z,5.63
2022-12-23T08:17:38.046Z,5.73
2022-12-23T08:20:06.873Z,5.70
2022-12-23T08:22:34.497Z,5.89
2022-12-23T08:25:02.121Z,6.13
2022-12-23T08:27:29.891Z,6.35
2022-12-23T08:29:57.508Z,6.63
2022-12-23T08:32:28.117Z,6.70
2022-12-23T08:34:58.457Z,6.83
2022-12-23T08:37:29.131Z,6.95
2022-12-23T08:39:57.256Z,7.29
2022-12-23T08:44:55.895Z,7.64
2022-12-23T08:47:23.462Z,7.84
2022-12-23T08:49:51.079Z,7.99
2022-12-23T08:52:18.633Z,7.96
2022-12-23T08:54:46.148Z,7.84
2022-12-23T08:57:13.713Z,8.32
2022-12-23T08:59:41.201Z,8.56
2022-12-23T09:02:12.462Z,8.93
2022-12-23T09:04:40.162Z,9.25
2022-12-23T09:07:07.619Z,9.60
2022-12-23T09:09:36.464Z,9.90
2022-12-23T09:12:04.576Z,10.35
2022-12-23T09:14:32.200Z,10.76
2022-12-23T09:16:59.817Z,11.21
2022-12-23T09:19:27.728Z,11.55
2022-12-23T09:21:55.433Z,11.70
2022-12-23T09:24:25.690Z,11.86
2022-12-23T09:26:53.307Z,12.01
2022-12-23T09:29:21.052Z,11.52
2022-12-23T09:31:48.637Z,11.05
2022-12-23T09:34:16.176Z,10.80
2022-12-23T09:36:43.955Z,10.83
2022-12-23T09:39:11.573Z,10.92
2022-12-23T09:42:01.896Z,11.74
2022-12-23T09:44:46.556Z,11.95
2022-12-23T09:47:22.670Z,12.07
2022-12-23T09:50:07.268Z,12.44
2022-12-23T09:53:04.764Z,12.32
2022-12-23T09:56:15.643Z,12.20
2022-12-23T09:59:39.016Z,11.66
2022-12-23T10:02:25.310Z,10.92
2022-12-23T10:05:35.533Z,10.45
2022-12-23T10:08:13.305Z,10.60
2022-12-23T10:10:50.131Z,10.12
2022-12-23T10:13:29.849Z,10.25
2022-12-23T10:16:04.622Z,9.97
2022-12-23T10:18:55.845Z,9.83
2022-12-23T10:21:47.987Z,10.06
2022-12-23T10:24:40.045Z,10.60
2022-12-23T10:27:37.699Z,10.89
2022-12-23T10:30:34.123Z,10.70
2022-12-23T10:33:12.270Z,10.20
2022-12-23T10:35:48.501Z,10.12
2022-12-23T10:38:49.439Z,10.26
2022-12-23T10:41:41.879Z,10.50
2022-12-23T10:44:40.231Z,10.63
2022-12-23T10:47:42.225Z,10.39
2022-12-23T10:50:50.999Z,10.87
2022-12-23T10:53:31.244Z,10.75
2022-12-23T10:55:59.560Z,10.61
2022-12-23T10:58:27.612Z,11.12
2022-12-23T11:01:09.917Z,11.44
2022-12-23T11:04:16.142Z,11.24
2022-12-23T11:06:52.853Z,11.78
2022-12-23T11:09:40.631Z,11.46
2022-12-23T11:12:13.127Z,11.42
2022-12-23T11:14:50.915Z,11.41
2022-12-23T11:17:23.213Z,10.89
2022-12-23T11:20:18.670Z,10.48
2022-12-23T11:23:02.474Z,10.48
2022-12-23T11:25:41.880Z,10.46
2022-12-23T11:28:18.370Z,10.49
2022-12-23T11:31:12.297Z,10.30
2022-12-23T11:34:02.843Z,10.02
2022-12-23T11:36:32.366Z,9.85
2022-12-23T11:39:05.618Z,9.79
2022-12-23T11:41:44.590Z,9.60
2022-12-23T11:44:49.481Z,9.49
2022-12-23T11:47:22.755Z,9.91
2022-12-23T11:49:54.686Z,9.71
2022-12-23T11:52:27.652Z,9.88
2022-12-23T11:55:01.822Z,9.66
2022-12-23T11:57:45.100Z,9.60
2022-12-23T12:00:23.150Z,9.51
2022-12-23T12:02:57.211Z,9.59
2022-12-23T12:05:48.186Z,9.89
2022-12-23T12:08:25.396Z,9.83
2022-12-23T12:10:56.600Z,9.74
2022-12-23T12:14:06.557Z,9.79
2022-12-23T12:17:05.269Z,10.43
2022-12-23T12:20:00.152Z,10.92
2022-12-23T12:22:36.962Z,11.86
2022-12-23T12:25:24.509Z,11.91
2022-12-23T12:28:01.624Z,11.89
2022-12-23T12:30:46.837Z,11.81
2022-12-23T12:33:35.072Z,11.76
2022-12-23T12:36:36.586Z,11.41
2022-12-23T12:39:04.877Z,11.15
2022-12-23T12:41:41.000Z,10.71
2022-12-23T12:44:33.020Z,10.79
2022-12-23T12:47:54.191Z,10.51
2022-12-23T12:50:29.791Z,10.54
2022-12-23T12:53:06.274Z,10.49
2022-12-23T12:55:42.755Z,10.91
2022-12-23T12:58:21.917Z,10.39
2022-12-23T13:01:24.443Z,10.12
2022-12-23T13:04:18.114Z,10.29
2022-12-23T13:07:00.503Z,10.51
2022-12-23T13:09:52.910Z,10.57
2022-12-23T13:12:43.245Z,10.19
2022-12-23T13:15:37.258Z,9.99
2022-12-23T13:18:40.209Z,10.07
2022-12-23T13:21:30.645Z,10.05
2022-12-23T13:24:32.897Z,10.09
2022-12-23T13:27:34.052Z,9.91
2022-12-23T13:30:18.037Z,9.98
2022-12-23T13:33:19.531Z,10.39
2022-12-23T13:39:11.591Z,10.07
2022-12-23T13:41:53.198Z,9.96
2022-12-23T13:44:22.889Z,9.61
2022-12-23T13:47:14.374Z,10.27
2022-12-23T13:50:31.436Z,9.86
2022-12-23T13:53:25.096Z,9.62
2022-12-23T13:56:16.265Z,9.22
2022-12-23T13:58:49.404Z,9.02
2022-12-23T14:01:17.822Z,8.94
2022-12-23T14:03:48.855Z,9.02
2022-12-23T14:06:25.109Z,9.03
2022-12-23T14:08:54.503Z,9.00
2022-12-23T14:11:32.175Z,8.96
2022-12-23T14:14:06.295Z,8.85
2022-12-23T14:16:42.947Z,8.74
2022-12-23T14:19:38.196Z,8.72
2022-12-23T14:22:23.530Z,8.71
2022-12-23T14:25:13.877Z,8.83
2022-12-23T14:27:52.662Z,8.84
2022-12-23T14:30:45.032Z,8.61
2022-12-23T14:33:36.045Z,8.52
2022-12-23T14:36:27.482Z,8.51
2022-12-23T14:39:14.113Z,8.54
2022-12-23T14:42:05.151Z,8.39
2022-12-23T14:44:39.169Z,8.76
2022-12-23T14:47:40.380Z,8.62
2022-12-23T14:50:59.091Z,8.33
2022-12-23T14:53:34.148Z,8.21
2022-12-23T14:56:19.306Z,8.34
2022-12-23T14:59:09.495Z,8.33
2022-12-23T15:01:50.406Z,8.16
2022-12-23T15:04:35.581Z,8.03
2022-12-23T15:07:17.264Z,7.95
2022-12-23T15:10:01.254Z,8.01
2022-12-23T15:12:41.579Z,8.12
2022-12-23T15:15:21.842Z,8.05
2022-12-23T15:18:00.955Z,8.02
2022-12-23T15:20:30.021Z,7.88
2022-12-23T15:23:08.126Z,7.80
2022-12-23T15:25:42.716Z,7.74
2022-12-23T15:28:40.396Z,7.72
2022-12-23T15:31:29.975Z,7.74
2022-12-23T15:34:03.956Z,7.73
2022-12-23T15:36:40.540Z,7.75
2022-12-23T15:39:21.111Z,7.65
2022-12-23T15:41:49.756Z,7.61
2022-12-23T15:44:24.639Z,7.63
2022-12-23T15:46:53.057Z,7.65
2022-12-23T15:49:22.490Z,7.65
2022-12-23T15:52:07.881Z,7.52
2022-12-23T15:55:12.932Z,7.49
2022-12-23T15:57:50.336Z,7.64
2022-12-23T16:00:31.193Z,7.74
2022-12-23T16:03:04.577Z,7.65
2022-12-23T16:06:06.134Z,7.61
2022-12-23T16:08:34.080Z,7.56
2022-12-23T16:11:20.764Z,7.57
2022-12-23T16:14:28.737Z,7.51
2022-12-23T16:17:01.971Z,8.07
2022-12-23T16:19:49.152Z,8.07
2022-12-23T16:22:39.778Z,7.74
2022-12-23T16:25:27.188Z,7.63
2022-12-23T16:28:13.079Z,7.77
2022-12-23T16:30:44.350Z,7.69
2022-12-23T16:34:08.121Z,7.57
2022-12-23T16:36:37.665Z,7.50
2022-12-23T16:39:21.869Z,7.43
2022-12-23T16:41:50.979Z,7.53
2022-12-23T16:44:18.556Z,7.37
2022-12-23T16:46:50.110Z,7.22
2022-12-23T16:49:27.944Z,7.20
2022-12-23T16:51:59.133Z,6.95
2022-12-23T16:54:27.968Z,6.95
2022-12-23T16:56:56.665Z,6.71
2022-12-23T16:59:25.996Z,7.01
2022-12-23T17:01:58.126Z,7.23
2022-12-23T17:04:30.644Z,6.78
2022-12-23T17:06:59.250Z,6.60
2022-12-23T17:09:26.878Z,6.55
2022-12-23T17:11:56.383Z,6.68
2022-12-23T17:14:46.139Z,6.95
2022-12-23T17:17:16.058Z,6.69
2022-12-23T17:19:43.855Z,6.53
2022-12-23T17:22:13.987Z,6.52
2022-12-23T17:24:44.088Z,6.34
2022-12-23T17:27:20.853Z,6.27
2022-12-23T17:29:48.472Z,6.23
2022-12-23T17:32:19.440Z,6.26
2022-12-23T17:34:47.825Z,6.18
2022-12-23T17:37:23.563Z,6.21
2022-12-23T17:39:54.341Z,6.17
2022-12-23T17:42:26.018Z,6.03
2022-12-23T17:44:54.515Z,5.95
2022-12-23T17:47:23.235Z,5.95
2022-12-23T17:49:52.109Z,5.89
2022-12-23T17:52:25.363Z,5.87
2022-12-23T17:54:54.647Z,5.88
2022-12-23T17:57:26.983Z,6.03
2022-12-23T17:59:56.946Z,6.07
2022-12-23T18:02:32.963Z,5.97
2022-12-23T18:05:29.495Z,5.92
2022-12-23T18:08:00.010Z,5.66
2022-12-23T18:10:37.395Z,5.62
2022-12-23T18:13:15.632Z,5.53
2022-12-23T18:15:46.880Z,5.47
2022-12-23T18:18:16.772Z,5.52
2022-12-23T18:20:53.296Z,5.46
2022-12-23T18:23:28.717Z,5.56
2022-12-23T18:25:58.245Z,5.77
2022-12-23T18:28:25.995Z,5.79
2022-12-23T18:30:56.764Z,5.65
2022-12-23T18:33:28.798Z,5.70
2022-12-23T18:35:56.985Z,5.24
2022-12-23T18:38:28.126Z,5.13
2022-12-23T18:40:56.775Z,5.02
2022-12-23T18:43:26.661Z,4.99
2022-12-23T18:45:58.816Z,4.90
2022-12-23T18:48:28.268Z,4.94
2022-12-23T18:50:57.305Z,4.90
2022-12-23T18:53:32.844Z,4.87
2022-12-23T18:56:00.455Z,4.91
2022-12-23T18:58:30.737Z,4.81
2022-12-23T19:01:00.542Z,4.90
2022-12-23T19:03:33.758Z,4.82
2022-12-23T19:06:06.825Z,4.76
2022-12-23T19:08:37.095Z,4.71
2022-12-23T19:11:21.016Z,4.76
2022-12-23T19:13:48.875Z,4.78
2022-12-23T19:16:20.493Z,4.85
2022-12-23T19:18:52.235Z,4.84
2022-12-23T19:21:22.938Z,4.74
2022-12-23T19:23:53.676Z,4.73
2022-12-23T19:26:24.489Z,4.63
2022-12-23T19:28:53.281Z,4.56
2022-12-23T19:31:21.013Z,4.51
2022-12-23T19:33:49.189Z,4.37
2022-12-23T19:36:25.003Z,4.20
2022-12-23T19:38:53.862Z,4.19
2022-12-23T19:41:21.412Z,4.34
2022-12-23T19:43:49.244Z,4.38
2022-12-23T19:46:18.700Z,4.41
2022-12-23T19:48:52.983Z,4.37
2022-12-23T19:51:24.411Z,4.24
2022-12-23T19:53:55.188Z,4.23
2022-12-23T19:56:26.228Z,4.23
2022-12-23T19:58:54.220Z,4.18
2022-12-23T20:01:26.807Z,4.23
2022-12-23T20:03:57.321Z,4.11
2022-12-23T20:06:33.277Z,4.06
2022-12-23T20:09:06.549Z,3.99
2022-12-23T20:11:40.981Z,3.90
2022-12-23T20:14:10.043Z,4.02
2022-12-23T20:16:41.931Z,4.04
2022-12-23T20:19:11.737Z,4.07
2022-12-23T20:21:39.537Z,4.05
2022-12-23T20:24:08.113Z,3.96
2022-12-23T20:26:35.903Z,3.95
2022-12-23T20:29:23.630Z,3.84
2022-12-23T20:31:51.348Z,3.84
2022-12-23T20:34:19.095Z,3.91
2022-12-23T20:36:49.148Z,3.97
2022-12-23T20:39:20.663Z,3.99
2022-12-23T20:41:51.147Z,3.95
2022-12-23T20:44:37.992Z,3.97
2022-12-23T20:47:10.602Z,3.91
2022-12-23T20:49:38.465Z,4.01
2022-12-23T20:52:07.413Z,3.97
2022-12-23T20:54:36.411Z,3.89
2022-12-23T20:57:04.516Z,3.85
2022-12-23T20:59:33.404Z,3.74
2022-12-23T21:02:01.617Z,3.86
2022-12-23T21:04:29.383Z,3.78
2022-12-23T21:06:57.509Z,3.74
2022-12-23T21:09:25.160Z,3.78
2022-12-23T21:11:53.931Z,3.72
2022-12-23T21:14:21.975Z,3.72
2022-12-23T21:16:49.779Z,3.72
2022-12-23T21:19:21.297Z,3.72
2022-12-23T21:21:52.967Z,3.68
2022-12-23T21:24:21.394Z,3.67
2022-12-23T21:26:56.469Z,3.75
2022-12-23T21:29:26.511Z,3.78
2022-12-23T21:31:55.893Z,3.61
2022-12-23T21:34:23.612Z,3.35
2022-12-23T21:36:53.873Z,3.29
2022-12-23T21:39:21.445Z,3.30
2022-12-23T21:41:51.460Z,3.24
2022-12-23T21:44:19.347Z,3.32
2022-12-23T21:46:47.063Z,3.36
2022-12-23T21:49:14.990Z,3.42
2022-12-23T21:51:42.464Z,3.34
2022-12-23T21:54:11.851Z,3.23
2022-12-23T21:56:40.951Z,3.35
2022-12-23T21:59:14.508Z,3.30
2022-12-23T22:01:43.545Z,3.31
2022-12-23T22:04:11.683Z,3.31
2022-12-23T22:06:46.007Z,3.26
2022-12-23T22:09:19.827Z,3.19
2022-12-23T22:11:48.797Z,3.12
2022-12-23T22:14:20.817Z,3.20
2022-12-23T22:16:49.406Z,3.14
2022-12-23T22:19:17.172Z,3.18
2022-12-23T22:21:44.714Z,3.28
2022-12-23T22:24:12.996Z,3.17
2022-12-23T22:26:41.458Z,3.21
2022-12-23T22:29:10.459Z,3.37
2022-12-23T22:31:53.162Z,3.26
2022-12-23T22:34:22.967Z,3.12
2022-12-23T22:36:50.716Z,3.12
2022-12-23T22:39:22.037Z,3.09
2022-12-23T22:41:52.059Z,3.09
2022-12-23T22:44:21.932Z,3.09
2022-12-23T22:46:50.208Z,3.26
2022-12-23T22:49:18.210Z,3.18
2022-12-23T22:51:46.028Z,3.13
2022-12-23T22:54:14.258Z,3.25
2022-12-23T22:56:42.028Z,2.96
2022-12-23T22:59:21.123Z,2.88
2022-12-23T23:01:50.302Z,2.86
2022-12-23T23:04:19.153Z,2.88
2022-12-23T23:06:46.715Z,2.95
2022-12-23T23:09:18.858Z,2.95
2022-12-23T23:11:46.781Z,2.90
2022-12-23T23:14:14.449Z,2.93
2022-12-23T23:16:42.321Z,2.97
2022-12-23T23:19:12.298Z,2.90
2022-12-23T23:21:40.450Z,2.91
2022-12-23T23:24:08.600Z,2.90
2022-12-23T23:26:36.269Z,2.93
2022-12-23T23:29:03.865Z,2.90
2022-12-23T23:31:41.885Z,2.86
2022-12-23T23:34:14.003Z,2.78
2022-12-23T23:36:41.734Z,2.86
2022-12-23T23:39:12.027Z,2.69
2022-12-23T23:41:41.018Z,2.54
2022-12-23T23:44:08.893Z,2.55
2022-12-23T23:46:36.546Z,2.73
2022-12-23T23:49:07.226Z,2.74
2022-12-23T23:51:35.115Z,2.66
2022-12-23T23:54:02.641Z,2.67
2022-12-23T23:56:37.488Z,2.72
2022-12-23T23:59:05.622Z,2.77
